Time;durP1;ratioP1;P1;durP2;ratioP2;P2;SDS_P1;SDS_P2;PMS_P1;PMS_P2;Temp;Humidity;BMP_temperature;BMP_pressure;BME280_temperature;BME280_humidity;BME280_pressure;Samples;Min_cycle;Max_cycle;Signal;HPM_P1;HPM_P2
2023/03/19 00:01:28;;;;;;;10.30;7.53;;;;;;;;;;4955232;28;20617;-78
2023/03/19 00:03:54;;;;;;;9.25;6.88;;;;;;;;;;4939146;28;20043;-78
2023/03/19 00:06:21;;;;;;;9.88;7.32;;;;;;;;;;4955000;28;20462;-78
2023/03/19 00:08:47;;;;;;;8.75;6.50;;;;;;;;;;4955314;28;20058;-78
2023/03/19 00:11:14;;;;;;;8.57;6.93;;;;;;;;;;4986549;28;20099;-78
2023/03/19 00:13:40;;;;;;;8.00;6.30;;;;;;;;;;4955459;28;20151;-78
2023/03/19 00:16:06;;;;;;;8.50;6.63;;;;;;;;;;4955767;28;20047;-78
2023/03/19 00:18:33;;;;;;;8.50;6.53;;;;;;;;;;4954982;28;20391;-78
2023/03/19 00:21:00;;;;;;;7.78;6.85;;;;;;;;;;4955091;28;20055;-77
2023/03/19 00:23:26;;;;;;;7.50;5.65;;;;;;;;;;4955542;28;20525;-78
2023/03/19 00:25:53;;;;;;;7.78;5.80;;;;;;;;;;4955554;28;20134;-78
2023/03/19 00:28:20;;;;;;;7.28;5.30;;;;;;;;;;4953742;28;20478;-78
2023/03/19 00:30:46;;;;;;;6.32;5.32;;;;;;;;;;4954761;28;20043;-78
2023/03/19 00:33:12;;;;;;;7.30;5.63;;;;;;;;;;4956554;28;20108;-78
2023/03/19 00:35:41;;;;;;;6.70;5.53;;;;;;;;;;4942342;28;20491;-78
2023/03/19 00:38:07;;;;;;;7.20;5.68;;;;;;;;;;4947805;28;20137;-78
2023/03/19 00:40:33;;;;;;;6.68;4.90;;;;;;;;;;4955214;28;20082;-78
2023/03/19 00:43:00;;;;;;;6.43;5.10;;;;;;;;;;4954925;28;20513;-78
2023/03/19 00:45:26;;;;;;;5.97;5.20;;;;;;;;;;4954722;28;20048;-78
2023/03/19 00:47:52;;;;;;;6.57;4.65;;;;;;;;;;4955521;29;20058;-78
2023/03/19 00:50:18;;;;;;;5.82;5.15;;;;;;;;;;4946595;28;20052;-78
2023/03/19 00:52:44;;;;;;;6.45;5.72;;;;;;;;;;4945019;29;20047;-78
2023/03/19 00:55:10;;;;;;;10.23;5.18;;;;;;;;;;4955260;28;20039;-78
2023/03/19 00:57:36;;;;;;;6.78;5.57;;;;;;;;;;4958939;28;20050;-78
2023/03/19 01:00:03;;;;;;;6.88;5.68;;;;;;;;;;4960804;28;20039;-78
2023/03/19 01:02:30;;;;;;;6.97;5.43;;;;;;;;;;4964476;28;20090;-78
2023/03/19 01:04:57;;;;;;;7.70;6.13;;;;;;;;;;4962664;28;20039;-78
2023/03/19 01:07:23;;;;;;;6.68;5.47;;;;;;;;;;4958425;28;20073;-78
2023/03/19 01:09:49;;;;;;;8.38;5.95;;;;;;;;;;4942572;28;20047;-78
2023/03/19 01:12:15;;;;;;;8.80;6.30;;;;;;;;;;4958669;28;20043;-78
2023/03/19 01:14:41;;;;;;;7.53;6.43;;;;;;;;;;4958972;28;20487;-78
2023/03/19 01:17:07;;;;;;;8.13;6.28;;;;;;;;;;4959109;28;20066;-78
2023/03/19 01:19:33;;;;;;;8.88;6.25;;;;;;;;;;4958324;28;20086;-78
2023/03/19 01:21:59;;;;;;;9.02;6.10;;;;;;;;;;4946296;28;20506;-78
2023/03/19 01:24:29;;;;;;;9.15;6.43;;;;;;;;;;4941428;29;20048;-78
2023/03/19 01:26:55;;;;;;;6.93;6.05;;;;;;;;;;4957930;28;20540;-78
2023/03/19 01:29:21;;;;;;;8.93;6.57;;;;;;;;;;4958545;28;20554;-78
2023/03/19 01:31:47;;;;;;;8.43;6.90;;;;;;;;;;4940591;28;20044;-78
2023/03/19 01:34:13;;;;;;;7.45;6.43;;;;;;;;;;4989130;28;20043;-78
2023/03/19 01:36:39;;;;;;;7.53;6.40;;;;;;;;;;4951336;28;20043;-77
2023/03/19 01:39:05;;;;;;;6.90;5.95;;;;;;;;;;4988643;28;20078;-77
2023/03/19 01:41:31;;;;;;;8.63;6.65;;;;;;;;;;4957341;28;20477;-77
2023/03/19 01:43:57;;;;;;;9.15;6.55;;;;;;;;;;4957501;28;20113;-77
2023/03/19 01:46:27;;;;;;;8.38;6.63;;;;;;;;;;4957868;28;20414;-78
2023/03/19 01:48:58;;;;;;;7.82;6.22;;;;;;;;;;4957033;28;20051;-78
2023/03/19 01:51:26;;;;;;;7.78;6.18;;;;;;;;;;4988889;28;20126;-78
2023/03/19 01:53:55;;;;;;;7.15;5.68;;;;;;;;;;4957986;28;20070;-78
2023/03/19 01:56:28;;;;;;;7.00;5.82;;;;;;;;;;4952195;28;20439;-78
2023/03/19 01:58:56;;;;;;;8.65;6.40;;;;;;;;;;4945875;29;20035;-78
2023/03/19 02:01:23;;;;;;;7.88;6.35;;;;;;;;;;4957558;28;20130;-78
2023/03/19 02:03:50;;;;;;;8.57;5.93;;;;;;;;;;4957592;28;20435;-77
2023/03/19 02:06:17;;;;;;;8.35;6.22;;;;;;;;;;4956794;28;20047;-76
2023/03/19 02:08:43;;;;;;;7.72;6.00;;;;;;;;;;4957606;28;20409;-76
2023/03/19 02:11:09;;;;;;;7.80;5.82;;;;;;;;;;4958252;28;20060;-76
2023/03/19 02:13:35;;;;;;;9.38;6.32;;;;;;;;;;4957481;28;20178;-76
2023/03/19 02:16:03;;;;;;;9.13;6.45;;;;;;;;;;4988803;28;20070;-76
2023/03/19 02:18:30;;;;;;;9.20;6.43;;;;;;;;;;4957133;28;20094;-76
2023/03/19 02:21:15;;;;;;;8.15;6.38;;;;;;;;;;4956988;28;20057;-76
2023/03/19 02:23:45;;;;;;;7.43;5.68;;;;;;;;;;4957262;28;20079;-76
2023/03/19 02:26:13;;;;;;;8.95;6.00;;;;;;;;;;4957225;28;20043;-77
2023/03/19 02:28:41;;;;;;;10.52;6.68;;;;;;;;;;4957485;28;20475;-77
2023/03/19 02:31:07;;;;;;;9.05;6.70;;;;;;;;;;4957597;28;20134;-77
2023/03/19 02:33:34;;;;;;;9.23;6.78;;;;;;;;;;4938564;28;20380;-78
2023/03/19 02:36:01;;;;;;;8.68;6.18;;;;;;;;;;4937751;28;20039;-78
2023/03/19 02:38:30;;;;;;;9.38;6.53;;;;;;;;;;4938096;29;20372;-77
2023/03/19 02:40:59;;;;;;;9.18;6.57;;;;;;;;;;4951444;28;20119;-78
2023/03/19 02:43:25;;;;;;;9.45;6.60;;;;;;;;;;4957262;28;20047;-78
2023/03/19 02:45:52;;;;;;;8.43;6.70;;;;;;;;;;4957215;28;20043;-78
2023/03/19 02:48:18;;;;;;;10.18;6.90;;;;;;;;;;4956858;28;20048;-78
2023/03/19 02:50:44;;;;;;;9.18;6.93;;;;;;;;;;4937604;29;20048;-77
2023/03/19 02:53:11;;;;;;;10.25;7.32;;;;;;;;;;4945787;29;20438;-77
2023/03/19 02:55:37;;;;;;;9.73;7.47;;;;;;;;;;4954447;28;20057;-76
2023/03/19 02:58:03;;;;;;;9.82;7.07;;;;;;;;;;4956153;28;20405;-76
2023/03/19 03:00:29;;;;;;;10.27;7.40;;;;;;;;;;4956647;28;20470;-76
2023/03/19 03:02:56;;;;;;;11.75;8.00;;;;;;;;;;4956505;28;20498;-76
2023/03/19 03:05:23;;;;;;;10.13;7.10;;;;;;;;;;4956543;28;20130;-76
2023/03/19 03:07:49;;;;;;;10.93;7.75;;;;;;;;;;4956206;28;20047;-76
2023/03/19 03:10:15;;;;;;;11.80;8.07;;;;;;;;;;4948243;28;20051;-76
2023/03/19 03:12:41;;;;;;;12.73;8.60;;;;;;;;;;4956392;28;20043;-76
2023/03/19 03:15:08;;;;;;;12.48;8.32;;;;;;;;;;4952514;28;20044;-76
2023/03/19 03:17:38;;;;;;;15.35;9.45;;;;;;;;;;4940374;29;20090;-77
2023/03/19 03:20:05;;;;;;;16.77;10.25;;;;;;;;;;4955407;28;20047;-77
2023/03/19 03:22:31;;;;;;;15.90;10.13;;;;;;;;;;4956118;28;20110;-77
2023/03/19 03:24:57;;;;;;;14.15;10.23;;;;;;;;;;4955713;28;20503;-77
2023/03/19 03:27:24;;;;;;;16.80;11.10;;;;;;;;;;4986899;28;20165;-77
2023/03/19 03:29:50;;;;;;;19.60;12.82;;;;;;;;;;4955995;28;20049;-77
2023/03/19 03:32:16;;;;;;;19.67;11.73;;;;;;;;;;4987524;28;20063;-77
2023/03/19 03:34:44;;;;;;;21.20;13.05;;;;;;;;;;4956201;28;20051;-78
2023/03/19 03:37:10;;;;;;;20.98;13.18;;;;;;;;;;4956128;28;20499;-77
2023/03/19 03:39:36;;;;;;;21.25;13.80;;;;;;;;;;4955852;28;20039;-78
2023/03/19 03:42:03;;;;;;;21.63;13.80;;;;;;;;;;4955726;28;20046;-78
2023/03/19 03:44:29;;;;;;;24.67;14.98;;;;;;;;;;4955994;28;20039;-77
2023/03/19 03:46:55;;;;;;;24.63;15.20;;;;;;;;;;4955734;28;20387;-78
2023/03/19 03:49:21;;;;;;;22.63;14.18;;;;;;;;;;4955901;28;20062;-77
2023/03/19 03:51:48;;;;;;;24.02;14.00;;;;;;;;;;4955594;28;20490;-77
2023/03/19 03:54:15;;;;;;;24.75;14.77;;;;;;;;;;4956022;28;20039;-78
2023/03/19 03:56:41;;;;;;;28.85;16.60;;;;;;;;;;4938235;28;20048;-77
2023/03/19 03:59:07;;;;;;;23.80;14.32;;;;;;;;;;4983395;28;20047;-78
2023/03/19 04:01:33;;;;;;;25.40;15.23;;;;;;;;;;4955278;28;20405;-77
2023/03/19 04:03:59;;;;;;;26.73;15.15;;;;;;;;;;4956511;28;20126;-77
2023/03/19 04:06:26;;;;;;;23.33;15.23;;;;;;;;;;4955740;28;20043;-77
2023/03/19 04:08:53;;;;;;;23.35;15.27;;;;;;;;;;4943388;28;20055;-78
2023/03/19 04:11:19;;;;;;;22.45;15.07;;;;;;;;;;4936769;29;20054;-78
2023/03/19 04:13:46;;;;;;;24.05;16.08;;;;;;;;;;4940130;29;20066;-78
2023/03/19 04:16:12;;;;;;;24.70;15.23;;;;;;;;;;4956024;28;20043;-78
2023/03/19 04:18:39;;;;;;;23.05;15.35;;;;;;;;;;4961122;28;20047;-78
2023/03/19 04:21:06;;;;;;;24.83;15.90;;;;;;;;;;4962677;28;20073;-78
2023/03/19 04:23:32;;;;;;;23.00;15.63;;;;;;;;;;4956484;28;20090;-78
2023/03/19 04:25:59;;;;;;;23.10;15.18;;;;;;;;;;4955945;28;20051;-78
2023/03/19 04:28:26;;;;;;;24.15;15.73;;;;;;;;;;4955470;28;20051;-78
2023/03/19 04:30:52;;;;;;;24.95;15.88;;;;;;;;;;4957111;28;20058;-78
2023/03/19 04:33:18;;;;;;;24.92;15.57;;;;;;;;;;4959355;28;20039;-78
2023/03/19 04:35:44;;;;;;;23.58;14.98;;;;;;;;;;4959318;28;20114;-78
2023/03/19 04:38:10;;;;;;;22.63;14.88;;;;;;;;;;4958867;28;20058;-78
2023/03/19 04:40:36;;;;;;;21.23;14.38;;;;;;;;;;4959158;28;20054;-78
2023/03/19 04:43:02;;;;;;;21.75;14.75;;;;;;;;;;4959085;28;20051;-78
2023/03/19 04:45:28;;;;;;;23.85;14.75;;;;;;;;;;4959398;28;20047;-78
2023/03/19 04:47:55;;;;;;;21.85;13.48;;;;;;;;;;4958931;28;20098;-78
2023/03/19 04:50:21;;;;;;;21.58;13.50;;;;;;;;;;4958585;28;20055;-78
2023/03/19 04:52:47;;;;;;;23.30;14.52;;;;;;;;;;4955008;28;20036;-78
2023/03/19 04:55:13;;;;;;;21.02;13.65;;;;;;;;;;4954865;28;20047;-78
2023/03/19 04:57:39;;;;;;;19.73;13.02;;;;;;;;;;4958750;28;20085;-78
2023/03/19 05:00:06;;;;;;;21.38;13.40;;;;;;;;;;4958913;28;20471;-78
2023/03/19 05:02:32;;;;;;;20.17;13.13;;;;;;;;;;4958614;28;20045;-78
2023/03/19 05:04:58;;;;;;;21.38;13.57;;;;;;;;;;4958883;28;20134;-78
2023/03/19 05:07:25;;;;;;;18.55;12.55;;;;;;;;;;4958354;28;20070;-78
2023/03/19 05:09:51;;;;;;;23.08;13.45;;;;;;;;;;4957813;28;20055;-78
2023/03/19 05:12:17;;;;;;;19.83;12.63;;;;;;;;;;4954534;28;20499;-78
2023/03/19 05:14:43;;;;;;;20.27;12.85;;;;;;;;;;4949106;29;20078;-78
2023/03/19 05:17:10;;;;;;;20.95;13.15;;;;;;;;;;4958638;28;20063;-78
2023/03/19 05:19:37;;;;;;;23.70;14.30;;;;;;;;;;4958113;28;20524;-78
2023/03/19 05:22:03;;;;;;;21.65;13.20;;;;;;;;;;4957193;28;20071;-78
2023/03/19 05:24:29;;;;;;;22.30;13.10;;;;;;;;;;4958374;28;20055;-78
2023/03/19 05:26:56;;;;;;;21.52;13.88;;;;;;;;;;4950207;28;20050;-78
2023/03/19 05:29:22;;;;;;;21.30;13.38;;;;;;;;;;4958365;28;20043;-78
2023/03/19 05:31:48;;;;;;;21.85;13.18;;;;;;;;;;4958264;28;20134;-78
2023/03/19 05:34:14;;;;;;;23.17;13.45;;;;;;;;;;4957583;28;20075;-77
2023/03/19 05:36:40;;;;;;;20.73;13.18;;;;;;;;;;4958429;29;20051;-78
2023/03/19 05:39:06;;;;;;;22.33;14.35;;;;;;;;;;4957972;29;20066;-78
2023/03/19 05:41:33;;;;;;;23.73;14.07;;;;;;;;;;4956632;28;20059;-78
2023/03/19 05:43:59;;;;;;;24.23;14.70;;;;;;;;;;4954368;28;20046;-78
2023/03/19 05:46:26;;;;;;;24.27;14.77;;;;;;;;;;4955085;28;20043;-78
2023/03/19 05:48:52;;;;;;;29.42;16.45;;;;;;;;;;4945263;29;20054;-78
2023/03/19 05:51:18;;;;;;;28.48;16.73;;;;;;;;;;4957596;28;20047;-78
2023/03/19 05:53:44;;;;;;;29.92;17.08;;;;;;;;;;4958403;28;20047;-78
2023/03/19 05:56:11;;;;;;;37.00;17.88;;;;;;;;;;4950859;28;20050;-78
2023/03/19 05:58:37;;;;;;;31.58;18.38;;;;;;;;;;4954277;28;20454;-78
2023/03/19 06:01:03;;;;;;;34.38;18.88;;;;;;;;;;4952662;29;20050;-78
2023/03/19 06:03:29;;;;;;;35.40;18.42;;;;;;;;;;4957457;28;20051;-78
2023/03/19 06:05:56;;;;;;;38.20;20.17;;;;;;;;;;4957221;28;20047;-77
2023/03/19 06:08:22;;;;;;;36.13;19.58;;;;;;;;;;4957845;28;20051;-78
2023/03/19 06:10:48;;;;;;;40.53;20.73;;;;;;;;;;4957895;28;20043;-77
2023/03/19 06:13:14;;;;;;;38.38;20.10;;;;;;;;;;4957740;28;20045;-78
2023/03/19 06:15:40;;;;;;;40.33;21.23;;;;;;;;;;4957410;28;20386;-78
2023/03/19 06:18:07;;;;;;;42.80;22.15;;;;;;;;;;4957491;28;20382;-77
2023/03/19 06:20:33;;;;;;;44.00;22.38;;;;;;;;;;4957069;28;20063;-78
2023/03/19 06:22:59;;;;;;;41.55;19.98;;;;;;;;;;4957895;28;20063;-77
2023/03/19 06:25:25;;;;;;;40.28;21.58;;;;;;;;;;4957493;28;20498;-78
2023/03/19 06:27:51;;;;;;;38.92;19.55;;;;;;;;;;4957693;28;20066;-77
2023/03/19 06:30:17;;;;;;;37.85;19.38;;;;;;;;;;4957308;28;20126;-77
2023/03/19 06:32:44;;;;;;;34.97;18.77;;;;;;;;;;4956264;29;20039;-78
2023/03/19 06:35:10;;;;;;;37.50;20.00;;;;;;;;;;4957035;28;20055;-78
2023/03/19 06:37:36;;;;;;;33.55;17.98;;;;;;;;;;4957040;28;20159;-78
2023/03/19 06:40:03;;;;;;;33.83;18.42;;;;;;;;;;4958398;28;20106;-78
2023/03/19 06:42:30;;;;;;;36.63;18.55;;;;;;;;;;5005131;28;20047;-77
2023/03/19 06:44:56;;;;;;;33.10;17.30;;;;;;;;;;4957680;28;20058;-80
2023/03/19 06:47:22;;;;;;;35.20;18.45;;;;;;;;;;4954471;28;20142;-77
2023/03/19 06:49:48;;;;;;;35.13;19.05;;;;;;;;;;4952062;28;20109;-78
2023/03/19 06:52:14;;;;;;;31.52;17.27;;;;;;;;;;4953266;28;20398;-78
2023/03/19 06:54:40;;;;;;;30.60;16.95;;;;;;;;;;4954259;28;20047;-78
2023/03/19 06:57:06;;;;;;;34.90;18.98;;;;;;;;;;4953850;28;20050;-78
2023/03/19 06:59:32;;;;;;;33.17;18.30;;;;;;;;;;4952382;28;20122;-78
2023/03/19 07:01:58;;;;;;;33.30;17.85;;;;;;;;;;4952397;28;20093;-78
2023/03/19 07:04:24;;;;;;;34.95;19.52;;;;;;;;;;4950576;28;20451;-78
2023/03/19 07:06:50;;;;;;;35.92;19.63;;;;;;;;;;4941366;29;20044;-78
2023/03/19 07:09:16;;;;;;;38.17;20.90;;;;;;;;;;4954777;28;20049;-78
2023/03/19 07:11:42;;;;;;;36.75;21.13;;;;;;;;;;4983508;28;20043;-78
2023/03/19 07:14:09;;;;;;;40.47;21.15;;;;;;;;;;4954251;28;20055;-78
2023/03/19 07:16:35;;;;;;;37.55;21.15;;;;;;;;;;4974066;28;20058;-78
2023/03/19 07:19:01;;;;;;;38.60;20.92;;;;;;;;;;4950444;28;20470;-78
2023/03/19 07:21:27;;;;;;;41.58;22.95;;;;;;;;;;4968182;28;20483;-78
2023/03/19 07:23:54;;;;;;;41.40;21.70;;;;;;;;;;4948714;28;20463;-78
2023/03/19 07:26:20;;;;;;;37.05;20.17;;;;;;;;;;4964429;28;20114;-78
2023/03/19 07:28:46;;;;;;;35.92;21.00;;;;;;;;;;4973141;28;20102;-79
2023/03/19 07:31:12;;;;;;;38.00;21.02;;;;;;;;;;4989011;28;20084;-78
2023/03/19 07:33:38;;;;;;;39.75;21.58;;;;;;;;;;4961518;28;20054;-78
2023/03/19 07:36:04;;;;;;;36.50;20.63;;;;;;;;;;4959349;28;20039;-78
2023/03/19 07:38:30;;;;;;;39.25;21.65;;;;;;;;;;4988015;28;20055;-77
2023/03/19 07:40:57;;;;;;;40.08;21.80;;;;;;;;;;4955662;28;20039;-78
2023/03/19 07:43:23;;;;;;;38.58;20.88;;;;;;;;;;4985862;28;20047;-77
2023/03/19 07:45:49;;;;;;;39.53;21.50;;;;;;;;;;4988234;28;20049;-81
2023/03/19 07:48:15;;;;;;;37.13;20.55;;;;;;;;;;4960821;28;20494;-81
2023/03/19 07:50:41;;;;;;;42.17;21.63;;;;;;;;;;4958412;29;20470;-78
2023/03/19 07:53:07;;;;;;;37.92;20.15;;;;;;;;;;4957707;28;20047;-79
2023/03/19 07:55:33;;;;;;;39.83;20.52;;;;;;;;;;4956581;28;20374;-78
2023/03/19 07:57:59;;;;;;;44.25;23.38;;;;;;;;;;4946354;28;20051;-78
2023/03/19 08:00:26;;;;;;;44.05;21.80;;;;;;;;;;4946738;28;20051;-79
2023/03/19 08:02:52;;;;;;;43.15;22.15;;;;;;;;;;4938482;28;20495;-78
2023/03/19 08:05:18;;;;;;;44.60;23.08;;;;;;;;;;4938825;29;20103;-78
2023/03/19 08:07:44;;;;;;;44.30;21.95;;;;;;;;;;4956617;28;20051;-78
2023/03/19 08:10:11;;;;;;;42.33;21.40;;;;;;;;;;4955519;28;20092;-77
2023/03/19 08:12:39;;;;;;;41.22;20.67;;;;;;;;;;4956107;28;20047;-77
2023/03/19 08:15:06;;;;;;;40.85;20.85;;;;;;;;;;4955852;29;20058;-77
2023/03/19 08:17:37;;;;;;;38.10;20.17;;;;;;;;;;4955594;28;20055;-77
2023/03/19 08:20:07;;;;;;;37.17;19.75;;;;;;;;;;4954952;28;20051;-77
2023/03/19 08:22:33;;;;;;;38.35;20.90;;;;;;;;;;4986772;28;20043;-77
2023/03/19 08:24:59;;;;;;;39.08;20.50;;;;;;;;;;4955594;28;20134;-77
2023/03/19 08:27:27;;;;;;;37.80;18.75;;;;;;;;;;4955600;28;20071;-77
2023/03/19 08:29:53;;;;;;;35.95;18.98;;;;;;;;;;4955268;28;20047;-77
2023/03/19 08:32:19;;;;;;;36.92;19.73;;;;;;;;;;4955322;28;20088;-77
2023/03/19 08:34:45;;;;;;;33.92;17.58;;;;;;;;;;4955174;28;20059;-77
2023/03/19 08:37:11;;;;;;;35.35;18.35;;;;;;;;;;4955161;28;20052;-77
2023/03/19 08:39:37;;;;;;;40.78;18.10;;;;;;;;;;4985770;28;20059;-77
2023/03/19 08:42:03;;;;;;;40.83;19.60;;;;;;;;;;4985760;28;20130;-77
2023/03/19 08:44:29;;;;;;;38.97;18.60;;;;;;;;;;4954506;28;20053;-77
2023/03/19 08:46:55;;;;;;;40.58;19.10;;;;;;;;;;4954712;28;20047;-77
2023/03/19 08:49:21;;;;;;;39.28;18.48;;;;;;;;;;4955555;29;20051;-77
2023/03/19 08:51:47;;;;;;;40.58;19.08;;;;;;;;;;4949058;28;20050;-77
2023/03/19 08:54:14;;;;;;;39.50;20.20;;;;;;;;;;4953641;28;20114;-77
2023/03/19 08:56:40;;;;;;;45.42;19.52;;;;;;;;;;4949947;28;20055;-77
2023/03/19 08:59:06;;;;;;;36.78;17.92;;;;;;;;;;4943318;28;20043;-77
2023/03/19 09:01:33;;;;;;;29.33;15.60;;;;;;;;;;4955375;28;20039;-77
2023/03/19 09:03:59;;;;;;;35.10;17.00;;;;;;;;;;4954752;28;20055;-77
2023/03/19 09:06:25;;;;;;;34.22;16.92;;;;;;;;;;4985704;28;20494;-77
2023/03/19 09:08:51;;;;;;;36.58;17.20;;;;;;;;;;4955153;28;20513;-77
2023/03/19 09:11:17;;;;;;;36.30;17.02;;;;;;;;;;4954613;28;20047;-77
2023/03/19 09:13:43;;;;;;;31.95;16.20;;;;;;;;;;4955114;28;20493;-77
2023/03/19 09:16:09;;;;;;;32.38;15.75;;;;;;;;;;4954049;28;20102;-77
2023/03/19 09:18:35;;;;;;;33.17;16.98;;;;;;;;;;4957975;28;20130;-77
2023/03/19 09:21:02;;;;;;;32.60;15.15;;;;;;;;;;4958233;28;20061;-77
2023/03/19 09:23:28;;;;;;;26.45;14.02;;;;;;;;;;4945933;28;20035;-77
2023/03/19 09:25:54;;;;;;;27.20;14.35;;;;;;;;;;4958205;28;20410;-77
2023/03/19 09:28:20;;;;;;;26.52;13.98;;;;;;;;;;4958010;28;20450;-77
2023/03/19 09:30:47;;;;;;;30.50;15.57;;;;;;;;;;4958002;28;20047;-77
2023/03/19 09:33:13;;;;;;;33.13;14.75;;;;;;;;;;4958074;28;20054;-77
2023/03/19 09:35:39;;;;;;;34.78;14.88;;;;;;;;;;4957727;29;20044;-77
2023/03/19 09:38:06;;;;;;;29.88;13.55;;;;;;;;;;4958060;28;20125;-77
2023/03/19 09:40:41;;;;;;;31.23;13.82;;;;;;;;;;4958219;28;20513;-77
2023/03/19 09:43:16;;;;;;;33.78;14.27;;;;;;;;;;4958493;28;20126;-77
2023/03/19 09:45:44;;;;;;;30.38;14.18;;;;;;;;;;4957748;28;20513;-77
2023/03/19 09:48:14;;;;;;;30.65;13.75;;;;;;;;;;4957203;28;20390;-77
2023/03/19 09:50:40;;;;;;;29.75;14.02;;;;;;;;;;4957797;28;20055;-77
2023/03/19 09:53:11;;;;;;;27.42;12.98;;;;;;;;;;4957847;28;20114;-77
2023/03/19 09:55:48;;;;;;;27.65;12.63;;;;;;;;;;4957727;28;20134;-77
2023/03/19 09:58:16;;;;;;;25.40;12.68;;;;;;;;;;4957833;28;20498;-77
2023/03/19 10:00:44;;;;;;;29.40;13.77;;;;;;;;;;4957453;28;20150;-77
2023/03/19 10:03:22;;;;;;;29.33;12.73;;;;;;;;;;4957597;28;20039;-77
2023/03/19 10:06:06;;;;;;;33.53;14.40;;;;;;;;;;4957153;28;20047;-77
2023/03/19 10:08:53;;;;;;;28.00;13.80;;;;;;;;;;4954515;28;20055;-77
2023/03/19 10:11:25;;;;;;;25.85;12.15;;;;;;;;;;4957484;28;20127;-77
2023/03/19 10:13:51;;;;;;;28.13;12.88;;;;;;;;;;4957782;28;20047;-77
2023/03/19 10:16:21;;;;;;;28.67;13.50;;;;;;;;;;4957334;28;20453;-77
2023/03/19 10:18:49;;;;;;;28.40;12.45;;;;;;;;;;4956116;28;20558;-77
2023/03/19 10:21:21;;;;;;;27.27;12.82;;;;;;;;;;4944836;28;20060;-77
2023/03/19 10:23:53;;;;;;;27.13;12.95;;;;;;;;;;4968991;28;20075;-77
2023/03/19 10:26:20;;;;;;;28.15;12.70;;;;;;;;;;4938675;29;20055;-77
2023/03/19 10:29:09;;;;;;;25.45;12.10;;;;;;;;;;4980914;28;20066;-77
2023/03/19 10:31:44;;;;;;;23.10;11.43;;;;;;;;;;4961957;28;20047;-77
2023/03/19 10:34:10;;;;;;;24.77;12.55;;;;;;;;;;4957338;28;20058;-77
2023/03/19 10:36:36;;;;;;;26.55;12.35;;;;;;;;;;4956983;28;20047;-77
2023/03/19 10:39:05;;;;;;;27.73;13.05;;;;;;;;;;4957269;28;20059;-77
2023/03/19 10:41:34;;;;;;;26.65;12.82;;;;;;;;;;4957174;28;20082;-77
2023/03/19 10:44:01;;;;;;;26.27;13.90;;;;;;;;;;4956925;28;20058;-77
2023/03/19 10:46:27;;;;;;;27.38;13.93;;;;;;;;;;4957286;28;20055;-77
2023/03/19 10:48:53;;;;;;;25.77;14.20;;;;;;;;;;5007626;28;20051;-77
2023/03/19 10:51:24;;;;;;;24.13;12.88;;;;;;;;;;4945773;28;20039;-77
2023/03/19 10:53:51;;;;;;;23.55;13.10;;;;;;;;;;4947151;29;20098;-77
2023/03/19 10:56:21;;;;;;;24.17;13.32;;;;;;;;;;4956982;28;20495;-77
2023/03/19 10:58:57;;;;;;;24.85;12.25;;;;;;;;;;4987525;28;20047;-77
2023/03/19 11:01:26;;;;;;;19.43;11.07;;;;;;;;;;4958487;28;20094;-77
2023/03/19 11:03:57;;;;;;;19.80;11.52;;;;;;;;;;4958073;28;20118;-78
2023/03/19 11:06:27;;;;;;;23.45;13.63;;;;;;;;;;4942261;29;20055;-78
2023/03/19 11:08:58;;;;;;;20.70;12.55;;;;;;;;;;4988688;28;20043;-78
2023/03/19 11:11:44;;;;;;;24.35;12.95;;;;;;;;;;4987830;28;20122;-78
2023/03/19 11:14:15;;;;;;;21.17;12.18;;;;;;;;;;4957114;28;20053;-78
2023/03/19 11:16:59;;;;;;;23.25;12.82;;;;;;;;;;4971128;28;20063;-78
2023/03/19 11:19:29;;;;;;;22.13;12.15;;;;;;;;;;4968319;28;20134;-78
2023/03/19 11:22:00;;;;;;;22.38;12.18;;;;;;;;;;4937818;29;20464;-78
2023/03/19 11:24:26;;;;;;;22.80;12.73;;;;;;;;;;4974931;28;20051;-78
2023/03/19 11:26:57;;;;;;;24.05;13.45;;;;;;;;;;4987596;28;20054;-78
2023/03/19 11:29:23;;;;;;;26.13;15.23;;;;;;;;;;4957002;28;20062;-78
2023/03/19 11:32:08;;;;;;;27.33;15.55;;;;;;;;;;4956557;28;20039;-78
2023/03/19 11:34:49;;;;;;;27.35;15.00;;;;;;;;;;4987072;28;20051;-78
2023/03/19 11:37:15;;;;;;;28.73;14.68;;;;;;;;;;4987416;28;20518;-78
2023/03/19 11:39:41;;;;;;;24.40;13.73;;;;;;;;;;4956270;28;20054;-78
2023/03/19 11:42:24;;;;;;;23.50;13.57;;;;;;;;;;4988458;28;20541;-78
2023/03/19 11:44:56;;;;;;;22.27;13.57;;;;;;;;;;4946230;28;20095;-78
2023/03/19 11:47:42;;;;;;;20.88;13.75;;;;;;;;;;4936335;29;20095;-78
2023/03/19 11:50:19;;;;;;;22.13;12.80;;;;;;;;;;4949322;28;20130;-78
2023/03/19 11:52:58;;;;;;;23.05;14.07;;;;;;;;;;4937063;29;20046;-78
2023/03/19 11:55:27;;;;;;;23.17;14.88;;;;;;;;;;4951529;29;20151;-78
2023/03/19 11:57:56;;;;;;;24.33;14.65;;;;;;;;;;4952771;29;20418;-78
2023/03/19 12:00:41;;;;;;;20.83;12.85;;;;;;;;;;4955312;28;20121;-78
2023/03/19 12:03:27;;;;;;;23.52;13.65;;;;;;;;;;4937990;29;20094;-80
2023/03/19 12:05:59;;;;;;;24.67;14.37;;;;;;;;;;4984920;28;20358;-79
2023/03/19 12:08:25;;;;;;;20.63;12.60;;;;;;;;;;4958065;28;20098;-78
2023/03/19 12:10:54;;;;;;;20.98;11.95;;;;;;;;;;4955214;28;20059;-78
2023/03/19 12:13:41;;;;;;;22.35;12.70;;;;;;;;;;4957017;28;20051;-77
2023/03/19 12:16:12;;;;;;;23.60;12.55;;;;;;;;;;4956016;28;20467;-78
2023/03/19 12:18:44;;;;;;;18.98;11.35;;;;;;;;;;4956439;28;20105;-78
2023/03/19 12:21:20;;;;;;;19.02;11.15;;;;;;;;;;4955511;29;20102;-78
2023/03/19 12:24:10;;;;;;;20.75;11.68;;;;;;;;;;4956553;28;20051;-78
2023/03/19 12:26:46;;;;;;;21.73;12.60;;;;;;;;;;4954093;28;20051;-78
2023/03/19 12:29:15;;;;;;;;;;;;;;;;;;4937967;29;20428;-78
2023/03/19 12:31:59;;;;;;;18.88;11.57;;;;;;;;;;4937165;29;19927;-78
2023/03/19 12:34:31;;;;;;;23.63;12.15;;;;;;;;;;4945907;28;20094;-78
2023/03/19 12:36:57;;;;;;;21.25;12.38;;;;;;;;;;4953982;28;20118;-78
2023/03/19 12:39:29;;;;;;;21.05;12.30;;;;;;;;;;4943587;28;20175;-78
2023/03/19 12:41:57;;;;;;;21.75;12.43;;;;;;;;;;4955370;28;20047;-78
2023/03/19 12:44:39;;;;;;;24.35;13.52;;;;;;;;;;4986601;28;20043;-79
2023/03/19 12:47:25;;;;;;;27.70;13.93;;;;;;;;;;4949754;29;20128;-78
2023/03/19 12:49:57;;;;;;;22.63;13.55;;;;;;;;;;4956381;28;20055;-78
2023/03/19 12:52:37;;;;;;;24.38;14.68;;;;;;;;;;4960347;28;20051;-78
2023/03/19 12:55:06;;;;;;;28.20;15.23;;;;;;;;;;4958235;29;20077;-78
2023/03/19 12:58:02;;;;;;;25.48;15.32;;;;;;;;;;4958221;28;20050;-78
2023/03/19 13:00:31;;;;;;;25.73;14.93;;;;;;;;;;4976003;28;20055;-78
2023/03/19 13:03:06;;;;;;;25.85;14.52;;;;;;;;;;4991941;28;20046;-78
2023/03/19 13:05:56;;;;;;;27.48;15.40;;;;;;;;;;4976484;28;20055;-78
2023/03/19 13:08:37;;;;;;;30.90;16.60;;;;;;;;;;4954611;28;20051;-78
2023/03/19 13:11:05;;;;;;;29.42;16.55;;;;;;;;;;4992556;28;20109;-78
2023/03/19 13:13:36;;;;;;;32.20;16.83;;;;;;;;;;4975886;28;20060;-78
2023/03/19 13:16:19;;;;;;;32.55;16.08;;;;;;;;;;4992319;28;20043;-78
2023/03/19 13:18:57;;;;;;;29.13;17.42;;;;;;;;;;4992864;28;20047;-78
2023/03/19 13:21:28;;;;;;;29.00;17.15;;;;;;;;;;4976077;28;20059;-78
2023/03/19 13:24:04;;;;;;;32.25;18.08;;;;;;;;;;4992175;28;20458;-78
2023/03/19 13:26:31;;;;;;;32.75;19.23;;;;;;;;;;4975856;28;20051;-78
2023/03/19 13:29:06;;;;;;;35.00;20.67;;;;;;;;;;4976262;28;20051;-78
2023/03/19 13:31:45;;;;;;;37.05;19.40;;;;;;;;;;4975921;28;20501;-78
2023/03/19 13:34:19;;;;;;;28.50;18.10;;;;;;;;;;4976148;28;20223;-78
2023/03/19 13:36:46;;;;;;;34.72;18.10;;;;;;;;;;4937195;29;20063;-78
2023/03/19 13:39:18;;;;;;;34.33;18.25;;;;;;;;;;4983144;28;20046;-78
2023/03/19 13:41:44;;;;;;;33.53;18.63;;;;;;;;;;4989158;28;20040;-78
2023/03/19 13:44:22;;;;;;;36.25;20.75;;;;;;;;;;4958606;28;20126;-78
2023/03/19 13:46:49;;;;;;;31.65;18.20;;;;;;;;;;4958384;28;20442;-78
2023/03/19 13:49:32;;;;;;;33.80;19.85;;;;;;;;;;4993592;28;20486;-79
2023/03/19 13:52:00;;;;;;;32.63;18.17;;;;;;;;;;4957207;29;20102;-78
2023/03/19 13:54:37;;;;;;;32.95;18.05;;;;;;;;;;4958050;28;20043;-78
2023/03/19 13:57:16;;;;;;;27.73;15.25;;;;;;;;;;4989153;28;20075;-79
2023/03/19 13:59:44;;;;;;;32.42;17.48;;;;;;;;;;4989210;28;20062;-79
2023/03/19 14:02:24;;;;;;;27.10;15.32;;;;;;;;;;4989152;28;20047;-78
2023/03/19 14:04:53;;;;;;;25.48;15.07;;;;;;;;;;4958026;28;20106;-78
2023/03/19 14:07:25;;;;;;;32.78;16.77;;;;;;;;;;4962781;28;20061;-78
2023/03/19 14:10:12;;;;;;;26.08;15.15;;;;;;;;;;4964026;28;20043;-79
2023/03/19 14:12:39;;;;;;;26.08;14.10;;;;;;;;;;4961693;28;20081;-78
2023/03/19 14:15:08;;;;;;;28.35;15.32;;;;;;;;;;4989072;28;20079;-78
2023/03/19 14:17:34;;;;;;;23.60;13.43;;;;;;;;;;4957932;28;20059;-78
2023/03/19 14:20:24;;;;;;;24.48;14.30;;;;;;;;;;4957845;28;20051;-79
2023/03/19 14:23:10;;;;;;;26.13;15.40;;;;;;;;;;4958617;28;20087;-78
2023/03/19 14:25:36;;;;;;;;;;;;;;;;;;4958100;28;20490;-78
2023/03/19 14:28:08;;;;;;;31.73;15.15;;;;;;;;;;4955400;29;19938;-78
2023/03/19 14:30:45;;;;;;;30.63;17.45;;;;;;;;;;4958442;28;20051;-79
2023/03/19 14:33:19;;;;;;;31.73;16.13;;;;;;;;;;4986638;28;20091;-79